createdAt,value
2018-08-22T00:01:51.307Z,4.77
2018-08-22T00:06:54.432Z,11.43
2018-08-22T00:11:57.520Z,7.40
2018-08-22T00:17:00.872Z,27.17
2018-08-22T00:22:04.056Z,8.50
2018-08-22T00:27:07.155Z,9.63
2018-08-22T00:32:10.291Z,6.93
2018-08-22T00:37:13.399Z,7.70
2018-08-22T00:42:16.436Z,17.43
2018-08-22T00:47:20.520Z,6.90
2018-08-22T00:52:23.611Z,6.40
2018-08-22T00:57:26.734Z,6.23
2018-08-22T01:02:29.988Z,5.17
2018-08-22T01:07:34.401Z,15.23
2018-08-22T01:12:37.830Z,7.80
2018-08-22T01:17:40.904Z,11.23
2018-08-22T01:22:44.208Z,9.20
2018-08-22T01:27:47.274Z,5.70
2018-08-22T01:32:50.362Z,8.93
2018-08-22T01:37:53.619Z,5.40
2018-08-22T01:42:56.730Z,8.27
2018-08-22T01:47:59.852Z,8.43
2018-08-22T01:53:02.911Z,8.77
2018-08-22T01:58:05.971Z,6.80
2018-08-22T02:03:09.147Z,4.67
2018-08-22T02:08:12.497Z,8.40
2018-08-22T02:13:15.643Z,8.43
2018-08-22T02:18:18.730Z,22.10
2018-08-22T02:23:21.920Z,11.50
2018-08-22T02:28:25.120Z,10.93
2018-08-22T02:33:28.439Z,12.10
2018-08-22T02:38:31.589Z,7.37
2018-08-22T02:43:35.764Z,5.40
2018-08-22T02:48:44.339Z,5.00
2018-08-22T02:53:47.442Z,9.80
2018-08-22T02:58:50.535Z,4.97
2018-08-22T03:03:53.607Z,8.50
2018-08-22T03:08:56.657Z,9.87
2018-08-22T03:13:59.837Z,6.80
2018-08-22T03:19:02.932Z,6.37
2018-08-22T03:24:06.039Z,7.07
2018-08-22T03:34:20.456Z,8.93
2018-08-22T03:39:23.521Z,16.53
2018-08-22T03:44:26.628Z,14.40
2018-08-22T03:49:29.692Z,6.90
2018-08-22T03:54:32.830Z,11.60
2018-08-22T03:59:35.916Z,5.80
2018-08-22T04:04:39.077Z,9.67
2018-08-22T04:09:42.158Z,20.57
2018-08-22T04:14:45.242Z,10.87
2018-08-22T04:19:48.314Z,10.43
2018-08-22T04:24:51.402Z,7.30
2018-08-22T04:29:54.501Z,6.50
2018-08-22T04:34:58.065Z,6.40
2018-08-22T04:40:01.187Z,7.73
2018-08-22T04:45:04.338Z,9.73
2018-08-22T04:50:07.643Z,7.70
2018-08-22T04:55:10.853Z,5.80
2018-08-22T05:00:13.911Z,5.90
2018-08-22T05:05:17.070Z,8.50
2018-08-22T05:10:20.192Z,6.30
2018-08-22T05:15:24.587Z,12.53
2018-08-22T05:20:28.026Z,12.13
2018-08-22T05:25:31.702Z,9.67
2018-08-22T05:30:34.810Z,8.30
2018-08-22T05:35:37.942Z,7.73
2018-08-22T05:40:41.098Z,11.00
2018-08-22T05:45:44.258Z,8.27
2018-08-22T05:50:47.353Z,6.00
2018-08-22T05:55:51.720Z,9.50
2018-08-22T06:00:54.930Z,6.10
2018-08-22T06:05:58.028Z,11.20
2018-08-22T06:11:01.154Z,7.20
2018-08-22T06:16:04.247Z,7.80
2018-08-22T06:21:07.510Z,4.33
2018-08-22T06:26:10.603Z,9.17
2018-08-22T06:31:14.794Z,5.57
2018-08-22T06:36:17.978Z,6.40
2018-08-22T06:41:21.072Z,9.57
2018-08-22T06:46:24.195Z,6.90
2018-08-22T06:51:27.391Z,2.80
2018-08-22T06:56:30.483Z,7.93
2018-08-22T07:01:33.700Z,4.10
2018-08-22T07:06:36.868Z,3.70
2018-08-22T07:11:39.919Z,6.60
2018-08-22T07:16:42.891Z,5.20
2018-08-22T07:21:45.993Z,4.23
2018-08-22T07:26:49.152Z,3.17
2018-08-22T07:31:52.248Z,3.00
2018-08-22T07:36:55.337Z,4.80
2018-08-22T07:41:58.461Z,2.73
2018-08-22T07:47:01.655Z,6.47
2018-08-22T07:52:04.834Z,3.03
2018-08-22T07:57:08.275Z,4.53
2018-08-22T08:02:11.563Z,6.87
2018-08-22T08:07:14.956Z,7.40
2018-08-22T08:12:20.051Z,6.90
2018-08-22T08:17:23.121Z,4.00
2018-08-22T08:22:26.168Z,6.40
2018-08-22T08:27:29.277Z,7.13
2018-08-22T08:32:32.367Z,2.40
2018-08-22T08:37:36.785Z,1.90
2018-08-22T08:42:39.930Z,2.53
2018-08-22T08:47:43.081Z,5.20
2018-08-22T08:52:46.251Z,3.37
2018-08-22T08:57:49.317Z,2.70
2018-08-22T09:02:52.501Z,4.80
2018-08-22T09:07:55.553Z,6.53
2018-08-22T09:12:58.664Z,7.20
2018-08-22T09:18:01.775Z,7.10
2018-08-22T09:23:05.290Z,15.20
2018-08-22T09:28:08.407Z,9.50
2018-08-22T09:33:11.477Z,6.13
2018-08-22T09:38:14.553Z,4.30
2018-08-22T09:43:17.636Z,1.90
2018-08-22T09:48:20.708Z,4.13
2018-08-22T09:53:24.183Z,3.17
2018-08-22T09:58:27.333Z,3.13
2018-08-22T10:03:44.686Z,5.33
2018-08-22T10:08:47.808Z,9.07
2018-08-22T10:13:50.910Z,2.27
2018-08-22T10:18:54.434Z,2.87
2018-08-22T10:23:57.570Z,5.37
2018-08-22T10:29:00.604Z,3.77
2018-08-22T10:34:03.695Z,2.93
2018-08-22T10:39:07.960Z,2.83
2018-08-22T10:44:11.020Z,3.70
2018-08-22T10:49:14.084Z,2.90
2018-08-22T10:54:17.247Z,6.03
2018-08-22T10:59:20.459Z,2.10
2018-08-22T11:04:23.623Z,4.53
2018-08-22T11:09:26.729Z,5.90
2018-08-22T11:14:29.796Z,4.07
2018-08-22T11:19:33.282Z,2.13
2018-08-22T11:24:48.035Z,5.53
2018-08-22T11:30:02.687Z,6.83
2018-08-22T11:35:04.898Z,3.83
2018-08-22T11:40:07.961Z,7.13
2018-08-22T11:45:11.035Z,3.43
2018-08-22T11:50:14.224Z,6.60
2018-08-22T11:55:17.252Z,2.97
2018-08-22T12:00:20.269Z,4.70
2018-08-22T12:05:23.434Z,2.60
2018-08-22T12:10:30.721Z,6.73
2018-08-22T12:15:34.708Z,2.00
2018-08-22T12:20:37.809Z,1.87
2018-08-22T12:25:41.072Z,4.80
2018-08-22T12:30:44.127Z,3.60
2018-08-22T12:35:47.221Z,2.90
2018-08-22T12:40:50.300Z,3.07
2018-08-22T12:45:53.518Z,4.80
2018-08-22T12:50:56.591Z,4.30
2018-08-22T12:55:59.645Z,6.43
2018-08-22T13:01:02.757Z,3.50
2018-08-22T13:06:06.425Z,4.23
2018-08-22T13:11:09.529Z,2.80
2018-08-22T13:16:12.548Z,3.67
2018-08-22T13:21:15.596Z,9.80
2018-08-22T13:26:18.608Z,5.63
2018-08-22T13:31:21.753Z,3.33
2018-08-22T13:36:24.785Z,4.20
2018-08-22T13:41:27.823Z,2.67
2018-08-22T13:46:30.903Z,10.43
2018-08-22T13:51:33.956Z,4.43
2018-08-22T13:56:36.991Z,5.10
2018-08-22T14:01:40.077Z,2.30
2018-08-22T14:06:43.254Z,2.60
2018-08-22T14:11:46.355Z,1.93
2018-08-22T14:16:49.430Z,3.97
2018-08-22T14:21:52.532Z,5.57
2018-08-22T14:26:55.638Z,4.93
2018-08-22T14:31:58.790Z,1.67
2018-08-22T14:37:01.834Z,2.73
2018-08-22T14:42:04.990Z,12.77
2018-08-22T14:47:08.068Z,11.43
2018-08-22T14:52:11.108Z,1.67
2018-08-22T14:57:14.203Z,2.43
2018-08-22T15:02:17.350Z,29.20
2018-08-22T15:07:20.333Z,1.87
2018-08-22T15:12:23.371Z,4.83
2018-08-22T15:17:26.527Z,3.77
2018-08-22T15:22:29.625Z,14.43
2018-08-22T15:27:32.693Z,5.90
2018-08-22T15:32:35.857Z,2.93
2018-08-22T15:37:38.993Z,2.97
2018-08-22T15:42:42.066Z,8.53
2018-08-22T15:47:45.179Z,3.23
2018-08-22T15:52:48.289Z,5.90
2018-08-22T15:57:58.659Z,13.83
2018-08-22T16:03:02.840Z,2.20
2018-08-22T16:08:06.113Z,6.47
2018-08-22T16:13:31.884Z,3.10
2018-08-22T16:18:35.014Z,14.33
2018-08-22T16:23:38.168Z,3.33
2018-08-22T16:28:53.708Z,8.70
2018-08-22T16:33:56.877Z,2.53
2018-08-22T16:39:00.805Z,6.13
2018-08-22T16:44:03.892Z,13.73
2018-08-22T16:49:06.976Z,6.20
2018-08-22T16:54:10.637Z,9.07
2018-08-22T16:59:13.867Z,19.70
2018-08-22T17:04:16.932Z,7.90
2018-08-22T17:09:19.968Z,3.80
2018-08-22T17:14:23.073Z,5.30
2018-08-22T17:19:27.183Z,2.87
2018-08-22T17:24:31.428Z,5.27
2018-08-22T17:29:34.487Z,5.17
2018-08-22T17:34:37.548Z,4.13
2018-08-22T17:39:40.586Z,57.27
2018-08-22T17:44:43.648Z,13.33
2018-08-22T17:49:58.318Z,77.10
2018-08-22T17:55:01.475Z,32.93
2018-08-22T18:00:04.531Z,81.83
2018-08-22T18:05:07.624Z,95.70
2018-08-22T18:10:10.687Z,70.13
2018-08-22T18:15:13.811Z,67.70
2018-08-22T18:20:16.921Z,54.57
2018-08-22T18:25:20.027Z,50.17
2018-08-22T18:30:23.160Z,28.00
2018-08-22T18:35:26.272Z,56.10
2018-08-22T18:40:30.441Z,50.97
2018-08-22T18:45:33.560Z,11.13
2018-08-22T18:50:37.755Z,13.37
2018-08-22T18:55:40.970Z,26.20
2018-08-22T19:00:44.171Z,10.27
2018-08-22T19:05:47.265Z,20.87
2018-08-22T19:10:51.007Z,15.63
2018-08-22T19:15:57.884Z,15.53
2018-08-22T19:21:02.418Z,18.67
2018-08-22T19:26:06.329Z,28.40
2018-08-22T19:31:09.458Z,17.53
2018-08-22T19:36:12.539Z,30.10
2018-08-22T19:41:23.679Z,26.80
2018-08-22T19:46:26.761Z,17.73
2018-08-22T19:51:30.929Z,10.97
2018-08-22T19:56:34.015Z,13.00
2018-08-22T20:01:37.975Z,32.87
2018-08-22T20:06:41.055Z,34.17
2018-08-22T20:11:44.146Z,26.87
2018-08-22T20:16:47.384Z,14.93
2018-08-22T20:21:50.459Z,17.80
2018-08-22T20:27:02.567Z,25.83
2018-08-22T20:32:09.470Z,33.00
2018-08-22T20:37:13.831Z,59.80
2018-08-22T20:42:17.283Z,44.20
2018-08-22T20:47:20.916Z,69.33
2018-08-22T20:52:24.121Z,27.00
2018-08-22T20:57:27.206Z,14.07
2018-08-22T21:02:30.432Z,13.60
2018-08-22T21:07:37.976Z,17.73
2018-08-22T21:12:41.043Z,15.23
2018-08-22T21:17:44.188Z,14.30
2018-08-22T21:22:47.338Z,20.73
2018-08-22T21:27:51.048Z,53.73
2018-08-22T21:32:54.126Z,26.10
2018-08-22T21:38:04.356Z,26.53
2018-08-22T21:43:07.422Z,49.63
2018-08-22T21:48:15.333Z,16.40
2018-08-22T21:53:18.394Z,41.23
2018-08-22T21:58:21.486Z,9.90
2018-08-22T22:03:30.180Z,21.87
2018-08-22T22:08:33.239Z,12.80
2018-08-22T22:13:36.324Z,26.63
2018-08-22T22:18:39.394Z,8.50
2018-08-22T22:23:47.883Z,9.23
2018-08-22T22:28:51.552Z,26.70
2018-08-22T22:33:58.666Z,42.33
2018-08-22T22:39:01.799Z,10.47
2018-08-22T22:44:05.056Z,13.37
2018-08-22T22:49:08.127Z,30.03
2018-08-22T22:54:11.225Z,15.63
2018-08-22T22:59:14.282Z,7.50
2018-08-22T23:04:17.386Z,24.10
2018-08-22T23:09:21.454Z,11.80
2018-08-22T23:14:24.564Z,41.80
2018-08-22T23:19:27.707Z,28.00
2018-08-22T23:24:30.789Z,11.80
2018-08-22T23:29:33.900Z,12.73
2018-08-22T23:34:36.953Z,13.00
2018-08-22T23:39:40.112Z,11.77
2018-08-22T23:44:44.438Z,19.10
2018-08-22T23:49:47.510Z,10.37
2018-08-22T23:54:50.538Z,48.63
2018-08-22T23:59:53.723Z,13.60
